Graham, AL

2:10 PM CDT on September 03, 2015 (GMT -0500)
Swagg Cove | | Change Station
CLOSE
Current Station
Personal Weather Station
Location: Wedowee, AL
Elevation: 801 ft
Nearby Weather Stations

Elev 801 ft 33.35 °N, 85.55 °W | Updated 1 minute ago

Clear
Clear
90.9 °F
Feels Like 97 °F
N
3.1
Wind Variable Wind from SSE
Gusts 4.5 mph

Today
High -- | Low -- °F
--% Chance of Precip.
Yesterday
High -- | Low -- °F
Precip. -- in
6:16 AM 7:04 PM
Waning Gibbous, 68% visible
Pressure 30.04 in
Visibility 10.0 miles
Clouds Clear
Heat Index 97 °F
Dew Point 70 °F
Humidity 51%
Rainfall 0.07 in
Snow Depth Not available.
UV 9 out of 12
Pollen 8.90 out of 12
Air Quality Not available.
Flu Activity Not available.
METAR KCTJ 031855Z AUTO 31003KT 10SM CLR 29/22 A3004 RMK AO2 LTG DSNT E T02920219
Pressure 30.04 in
Visibility 10.0 miles
Clouds Clear
Heat Index 97 °F
Dew Point 70 °F
Humidity 51%
Rainfall 0.07 in
Snow Depth Not available.
UV 9 out of 12
Pollen 8.90 out of 12
Air Quality Not available.
Flu Activity Not available.
METAR KCTJ 031855Z AUTO 31003KT 10SM CLR 29/22 A3004 RMK AO2 LTG DSNT E T02920219

10-Day Weather Forecast

×

Almanac

Astronomy

Sep. 03, 2015 Rise Set
Actual Time
Civil Twilight
Nautical Twilight
Astronomical Twilight
Moon
Length of Visible Light
Length of Day
Tomorrow will be .
, % of the Moon is Illuminated

Today's Extremes

State Highs State Lows

Community

WunderPhotos

Upload Photos

1,852,014 photos uploaded!

WunderBlogs® & News

Nearby

Air Quality

  Air Quality AQ Index Pollutant
Not available.

Snow Depth

Station Depth Elevation

Earthquake Activity

City Distance Mag. Time & Date
Minimum magnitude displayed is 2.5.

Coastal Water Temperatures

Place Temperature

Stations

Nearby Weather Stations

Station Location Temp. Windchill Dew Point Humidity Wind Precip. Elev Updated Type